createdAt,value
2019-02-16T00:02:02.411Z,102487.77
2019-02-16T00:04:32.703Z,102483.75
2019-02-16T00:07:02.944Z,102478.22
2019-02-16T00:09:33.307Z,102479.16
2019-02-16T00:12:03.869Z,102473.95
2019-02-16T00:14:34.145Z,102481.00
2019-02-16T00:17:04.408Z,102482.17
2019-02-16T00:19:35.062Z,102488.65
2019-02-16T00:22:05.316Z,102480.08
2019-02-16T00:24:36.465Z,102481.73
2019-02-16T00:27:06.717Z,102482.25
2019-02-16T00:29:37.179Z,102489.59
2019-02-16T00:32:07.429Z,102486.44
2019-02-16T00:34:37.886Z,102487.39
2019-02-16T00:37:08.141Z,102489.24
2019-02-16T00:39:39.297Z,102491.11
2019-02-16T00:42:09.834Z,102485.16
2019-02-16T00:44:40.115Z,102486.29
2019-02-16T00:47:10.369Z,102480.16
2019-02-16T00:49:40.656Z,102480.33
2019-02-16T00:52:10.912Z,102474.58
2019-02-16T00:54:42.079Z,102478.06
2019-02-16T00:57:12.341Z,102471.03
2019-02-16T00:59:42.611Z,102476.22
2019-02-16T01:02:12.868Z,102466.58
2019-02-16T01:04:43.146Z,102470.63
2019-02-16T01:07:13.412Z,102462.69
2019-02-16T01:09:43.682Z,102466.02
2019-02-16T01:12:13.950Z,102464.68
2019-02-16T01:14:44.227Z,102463.59
2019-02-16T01:17:14.480Z,102461.22
2019-02-16T01:19:44.761Z,102459.78
2019-02-16T01:22:15.031Z,102452.09
2019-02-16T01:24:45.318Z,102452.09
2019-02-16T01:27:15.569Z,102443.02
2019-02-16T01:29:45.850Z,102444.14
2019-02-16T01:32:16.117Z,102448.45
2019-02-16T01:34:46.385Z,102445.50
2019-02-16T01:37:16.635Z,102444.34
2019-02-16T01:39:47.060Z,102435.62
2019-02-16T01:42:17.311Z,102429.27
2019-02-16T01:44:47.565Z,102432.99
2019-02-16T01:47:17.829Z,102434.47
2019-02-16T01:49:48.076Z,102430.78
2019-02-16T01:52:18.336Z,102419.63
2019-02-16T01:54:48.581Z,102420.91
2019-02-16T01:57:18.843Z,102412.55
2019-02-16T01:59:49.092Z,102414.34
2019-02-16T02:02:19.368Z,102411.23
2019-02-16T02:04:49.621Z,102407.84
2019-02-16T02:07:19.889Z,102408.08
2019-02-16T02:09:50.137Z,102397.34
2019-02-16T02:12:20.482Z,102395.67
2019-02-16T02:14:52.355Z,102398.63
2019-02-16T02:17:22.623Z,102399.77
2019-02-16T02:19:52.875Z,102394.03
2019-02-16T02:22:23.149Z,102392.37
2019-02-16T02:24:53.398Z,102388.27
2019-02-16T02:27:23.666Z,102385.60
2019-02-16T02:29:53.919Z,102381.52
2019-02-16T02:32:24.188Z,102386.39
2019-02-16T02:34:54.433Z,102388.09
2019-02-16T02:37:24.707Z,102377.53
2019-02-16T02:39:56.069Z,102376.38
2019-02-16T02:42:26.338Z,102374.64
2019-02-16T02:44:56.598Z,102370.56
2019-02-16T02:47:26.857Z,102369.68
2019-02-16T02:49:57.111Z,102367.41
2019-02-16T02:52:27.377Z,102367.57
2019-02-16T02:54:57.631Z,102361.61
2019-02-16T02:57:27.919Z,102355.13
2019-02-16T02:59:58.164Z,102355.31
2019-02-16T03:02:28.432Z,102357.19
2019-02-16T03:04:58.687Z,102351.86
2019-02-16T03:07:28.961Z,102347.95
2019-02-16T03:09:59.215Z,102356.11
2019-02-16T03:12:29.486Z,102352.52
2019-02-16T03:14:59.734Z,102346.55
2019-02-16T03:17:30.011Z,102347.61
2019-02-16T03:20:00.346Z,102348.94
2019-02-16T03:23:07.053Z,102350.48
2019-02-16T03:25:37.375Z,102349.17
2019-02-16T03:28:26.153Z,102347.30
2019-02-16T03:31:31.398Z,102351.41
2019-02-16T03:34:21.137Z,102343.80
2019-02-16T03:37:13.951Z,102337.88
2019-02-16T03:39:45.580Z,102341.41
2019-02-16T03:42:15.809Z,102343.11
2019-02-16T03:44:46.077Z,102342.93
2019-02-16T03:47:16.333Z,102346.25
2019-02-16T03:49:46.602Z,102347.97
2019-02-16T03:52:16.874Z,102340.91
2019-02-16T03:54:47.138Z,102339.28
2019-02-16T03:57:17.391Z,102337.77
2019-02-16T03:59:47.662Z,102330.01
2019-02-16T04:02:17.921Z,102333.40
2019-02-16T04:04:48.192Z,102341.55
2019-02-16T04:07:18.448Z,102340.06
2019-02-16T04:09:48.729Z,102335.03
2019-02-16T04:12:18.969Z,102338.85
2019-02-16T04:14:49.237Z,102328.37
2019-02-16T04:17:19.490Z,102331.89
2019-02-16T04:19:49.767Z,102331.55
2019-02-16T04:22:24.634Z,102322.31
2019-02-16T04:24:52.061Z,102321.37
2019-02-16T04:27:22.311Z,102326.42
2019-02-16T04:29:52.581Z,102311.54
2019-02-16T04:32:22.835Z,102312.69
2019-02-16T04:34:53.107Z,102312.28
2019-02-16T04:37:23.632Z,102318.12
2019-02-16T04:39:53.904Z,102316.28
2019-02-16T04:42:24.157Z,102316.12
2019-02-16T04:44:54.593Z,102312.97
2019-02-16T04:47:24.844Z,102314.99
2019-02-16T04:49:55.115Z,102308.89
2019-02-16T04:52:34.318Z,102306.13
2019-02-16T04:54:57.510Z,102300.92
2019-02-16T04:57:27.761Z,102294.85
2019-02-16T04:59:58.025Z,102292.95
2019-02-16T05:02:28.282Z,102291.11
2019-02-16T05:04:58.615Z,102292.58
2019-02-16T05:07:28.867Z,102290.74
2019-02-16T05:09:59.142Z,102286.08
2019-02-16T05:12:29.863Z,102287.75
2019-02-16T05:15:00.302Z,102284.63
2019-02-16T05:17:30.567Z,102283.52
2019-02-16T05:20:00.839Z,102275.03
2019-02-16T05:22:31.357Z,102280.02
2019-02-16T05:25:01.627Z,102283.23
2019-02-16T05:27:33.115Z,102281.00
2019-02-16T05:30:03.949Z,102280.84
2019-02-16T05:32:34.372Z,102271.56
2019-02-16T05:35:05.594Z,102281.05
2019-02-16T05:37:35.839Z,102282.55
2019-02-16T05:40:08.519Z,102274.40
2019-02-16T05:42:38.919Z,102278.08
2019-02-16T05:45:09.661Z,102271.02
2019-02-16T05:47:39.912Z,102268.80
2019-02-16T05:50:10.179Z,102268.05
2019-02-16T05:52:42.546Z,102268.61
2019-02-16T05:55:12.805Z,102274.34
2019-02-16T05:57:43.061Z,102277.72
2019-02-16T06:00:14.298Z,102280.34
2019-02-16T06:02:44.721Z,102280.37
2019-02-16T06:05:14.997Z,102281.06
2019-02-16T06:07:45.246Z,102280.53
2019-02-16T06:10:15.519Z,102285.19
2019-02-16T06:12:46.235Z,102290.19
2019-02-16T06:15:16.780Z,102277.06
2019-02-16T06:17:47.147Z,102280.42
2019-02-16T06:20:17.484Z,102280.59
2019-02-16T06:22:47.738Z,102277.98
2019-02-16T06:25:18.012Z,102286.14
2019-02-16T06:27:48.275Z,102283.80
2019-02-16T06:30:18.537Z,102275.22
2019-02-16T06:32:48.794Z,102274.95
2019-02-16T06:35:35.654Z,102279.03
2019-02-16T06:38:05.905Z,102267.16
2019-02-16T06:40:36.170Z,102258.48
2019-02-16T06:43:06.417Z,102257.42
2019-02-16T06:45:36.692Z,102263.23
2019-02-16T06:48:06.942Z,102249.16
2019-02-16T06:50:37.397Z,102249.95
2019-02-16T06:53:13.258Z,102251.36
2019-02-16T06:55:41.434Z,102249.91
2019-02-16T06:58:11.688Z,102249.63
2019-02-16T07:00:41.944Z,102248.48
2019-02-16T07:03:12.207Z,102248.62
2019-02-16T07:05:42.458Z,102250.63
2019-02-16T07:08:12.731Z,102250.98
2019-02-16T07:10:42.986Z,102248.59
2019-02-16T07:13:13.376Z,102245.62
2019-02-16T07:15:45.304Z,102240.80
2019-02-16T07:18:25.937Z,102244.52
2019-02-16T07:20:56.318Z,102240.55
2019-02-16T07:23:26.568Z,102237.67
2019-02-16T07:25:56.832Z,102241.35
2019-02-16T07:28:27.102Z,102233.50
2019-02-16T07:30:57.358Z,102235.83
2019-02-16T07:33:28.702Z,102227.02
2019-02-16T07:35:58.977Z,102219.34
2019-02-16T07:38:29.247Z,102221.11
2019-02-16T07:40:59.660Z,102208.70
2019-02-16T07:43:37.294Z,102212.66
2019-02-16T07:46:11.872Z,102213.70
2019-02-16T07:48:49.745Z,102204.30
2019-02-16T07:51:27.353Z,102197.68
2019-02-16T07:54:05.125Z,102204.16
2019-02-16T07:56:37.041Z,102200.83
2019-02-16T07:59:14.675Z,102205.38
2019-02-16T08:01:56.735Z,102200.89
2019-02-16T08:04:26.923Z,102198.38
2019-02-16T08:06:58.826Z,102197.18
2019-02-16T08:09:36.680Z,102196.25
2019-02-16T08:12:08.956Z,102189.56
2019-02-16T08:14:40.865Z,102189.17
2019-02-16T08:17:24.821Z,102186.69
2019-02-16T08:20:13.730Z,102187.17
2019-02-16T08:22:45.689Z,102194.75
2019-02-16T08:25:33.498Z,102191.34
2019-02-16T08:28:17.334Z,102185.93
2019-02-16T08:31:04.226Z,102188.81
2019-02-16T08:33:50.884Z,102186.33
2019-02-16T08:36:28.505Z,102180.28
2019-02-16T08:39:09.168Z,102187.95
2019-02-16T08:41:41.110Z,102188.81
2019-02-16T08:44:18.807Z,102176.75
2019-02-16T08:46:54.578Z,102173.30
2019-02-16T08:49:35.572Z,102176.37
2019-02-16T08:52:23.521Z,102174.92
2019-02-16T08:54:58.343Z,102175.20
2019-02-16T08:57:36.181Z,102174.02
2019-02-16T09:00:25.662Z,102174.09
2019-02-16T09:02:57.581Z,102180.39
2019-02-16T09:05:29.481Z,102189.98
2019-02-16T09:08:05.363Z,102186.34
2019-02-16T09:10:37.990Z,102180.19
2019-02-16T09:13:15.720Z,102184.59
2019-02-16T09:15:47.608Z,102181.23
2019-02-16T09:18:19.689Z,102189.86
2019-02-16T09:20:51.600Z,102186.55
2019-02-16T09:23:23.490Z,102191.72
2019-02-16T09:26:09.103Z,102183.69
2019-02-16T09:28:43.705Z,102182.48
2019-02-16T09:31:24.455Z,102180.34
2019-02-16T09:33:56.613Z,102180.12
2019-02-16T09:36:28.520Z,102183.95
2019-02-16T09:39:03.147Z,102180.99
2019-02-16T09:41:38.061Z,102174.08
2019-02-16T09:44:10.136Z,102171.89
2019-02-16T09:46:42.058Z,102168.84
2019-02-16T09:49:16.693Z,102162.98
2019-02-16T09:52:06.948Z,102158.78
2019-02-16T09:54:39.032Z,102159.17
2019-02-16T09:57:10.943Z,102160.36
2019-02-16T09:59:58.317Z,102164.88
2019-02-16T10:02:30.258Z,102160.09
2019-02-16T10:05:02.150Z,102158.86
2019-02-16T10:07:51.456Z,102150.11
2019-02-16T10:10:35.319Z,102139.30
2019-02-16T10:13:16.189Z,102137.09
2019-02-16T10:15:59.888Z,102136.02
2019-02-16T10:18:48.233Z,102131.77
2019-02-16T10:21:20.153Z,102129.03
2019-02-16T10:24:17.586Z,102120.79
2019-02-16T10:26:46.563Z,102118.72
2019-02-16T10:29:18.477Z,102119.85
2019-02-16T10:31:50.874Z,102113.69
2019-02-16T10:34:45.639Z,102116.33
2019-02-16T10:37:20.756Z,102099.27
2019-02-16T10:40:10.526Z,102099.81
2019-02-16T10:42:51.700Z,102100.38
2019-02-16T10:45:41.676Z,102099.86
2019-02-16T10:48:22.528Z,102092.56
2019-02-16T10:50:57.296Z,102080.44
2019-02-16T10:53:31.877Z,102069.77
2019-02-16T10:56:03.802Z,102075.40
2019-02-16T10:58:35.714Z,102063.89
2019-02-16T11:01:07.642Z,102067.72
2019-02-16T11:03:51.405Z,102056.87
2019-02-16T11:06:29.022Z,102063.73
2019-02-16T11:09:02.139Z,102054.71
2019-02-16T11:11:35.644Z,102051.73
2019-02-16T11:14:07.631Z,102055.56
2019-02-16T11:16:48.397Z,102048.69
2019-02-16T11:19:20.290Z,102043.62
2019-02-16T11:22:10.124Z,102038.12
2019-02-16T11:24:48.204Z,102033.72
2019-02-16T11:27:29.408Z,102037.82
2019-02-16T11:30:15.633Z,102040.66
2019-02-16T11:32:56.624Z,102032.23
2019-02-16T11:35:34.513Z,102028.16
2019-02-16T11:38:22.395Z,102027.67
2019-02-16T11:41:08.723Z,102027.73
2019-02-16T11:43:41.101Z,102026.64
2019-02-16T11:46:14.790Z,102018.77
2019-02-16T11:48:49.405Z,102016.85
2019-02-16T11:51:24.329Z,102018.91
2019-02-16T11:53:59.394Z,102016.97
2019-02-16T11:56:40.150Z,102013.85
2019-02-16T11:59:23.800Z,102008.84
2019-02-16T12:01:55.706Z,102014.25
2019-02-16T12:04:31.817Z,102007.76
2019-02-16T12:07:19.862Z,102013.25
2019-02-16T12:09:51.754Z,102003.73
2019-02-16T12:12:23.658Z,102001.73
2019-02-16T12:14:55.547Z,101997.20
2019-02-16T12:17:33.432Z,101995.19
2019-02-16T12:20:11.794Z,101983.69
2019-02-16T12:22:46.625Z,101984.34
2019-02-16T12:25:18.526Z,101983.36
2019-02-16T12:27:50.437Z,101980.77
2019-02-16T12:30:28.207Z,101974.05
2019-02-16T12:33:00.131Z,101971.91
2019-02-16T12:35:50.260Z,101966.64
2019-02-16T12:38:22.174Z,101968.55
2019-02-16T12:40:56.981Z,101966.34
2019-02-16T12:43:28.896Z,101964.31
2019-02-16T12:46:15.802Z,101962.91
2019-02-16T12:48:56.860Z,101962.77
2019-02-16T12:51:34.637Z,101969.88
2019-02-16T12:54:06.546Z,101959.27
2019-02-16T12:56:53.682Z,101955.77
2019-02-16T12:59:28.541Z,101954.96
2019-02-16T13:02:00.437Z,101949.52
2019-02-16T13:04:35.317Z,101943.52
2019-02-16T13:07:07.238Z,101933.19
2019-02-16T13:09:42.101Z,101939.15
2019-02-16T13:12:16.689Z,101933.91
2019-02-16T13:14:51.527Z,101931.78
2019-02-16T13:17:39.705Z,101930.54
2019-02-16T13:20:14.335Z,101925.12
2019-02-16T13:22:52.205Z,101930.39
2019-02-16T13:25:36.097Z,101919.45
2019-02-16T13:28:14.090Z,101920.78
2019-02-16T13:31:01.267Z,101912.64
2019-02-16T13:33:35.849Z,101914.83
2019-02-16T13:36:21.214Z,101916.93
2019-02-16T13:39:00.122Z,101905.64
2019-02-16T13:41:34.602Z,101902.83
2019-02-16T13:44:09.444Z,101906.53
2019-02-16T13:46:42.379Z,101905.26
2019-02-16T13:49:20.119Z,101902.61
2019-02-16T13:51:58.127Z,101901.61
2019-02-16T13:54:36.147Z,101898.04
2019-02-16T13:57:09.151Z,101891.58
2019-02-16T13:59:44.195Z,101885.56
2019-02-16T14:02:16.114Z,101887.79
2019-02-16T14:04:48.016Z,101880.08
2019-02-16T14:07:26.945Z,101883.03
2019-02-16T14:09:58.843Z,101880.85
2019-02-16T14:12:48.681Z,101875.66
2019-02-16T14:15:23.736Z,101872.84
2019-02-16T14:17:54.024Z,101861.09
2019-02-16T14:20:24.285Z,101858.57
2019-02-16T14:22:54.631Z,101856.37
2019-02-16T14:25:26.528Z,101852.98
2019-02-16T14:27:56.817Z,101861.25
2019-02-16T14:30:27.076Z,101855.94
2019-02-16T14:32:57.358Z,101849.61
2019-02-16T14:35:30.611Z,101843.71
2019-02-16T14:38:02.536Z,101835.99
2019-02-16T14:40:32.950Z,101837.48
2019-02-16T14:43:03.222Z,101836.21
2019-02-16T14:45:35.127Z,101830.25
2019-02-16T14:48:06.266Z,101829.63
2019-02-16T14:50:36.523Z,101825.75
2019-02-16T14:53:06.806Z,101815.64
2019-02-16T14:55:37.065Z,101816.40
2019-02-16T14:58:07.377Z,101813.58
2019-02-16T15:00:38.593Z,101817.45
2019-02-16T15:03:08.889Z,101813.23
2019-02-16T15:05:39.156Z,101813.51
2019-02-16T15:08:09.587Z,101809.89
2019-02-16T15:10:39.937Z,101809.27
2019-02-16T15:13:10.220Z,101808.72
2019-02-16T15:15:43.536Z,101811.81
2019-02-16T15:18:13.881Z,101803.88
2019-02-16T15:20:44.846Z,101804.30
2019-02-16T15:23:15.240Z,101800.09
2019-02-16T15:25:47.601Z,101797.78
2019-02-16T15:28:17.900Z,101794.16
2019-02-16T15:30:48.328Z,101792.43
2019-02-16T15:33:18.634Z,101798.74
2019-02-16T15:35:49.072Z,101798.03
2019-02-16T15:38:23.068Z,101796.45
2019-02-16T15:40:53.514Z,101793.64
2019-02-16T15:43:24.787Z,101791.88
2019-02-16T15:45:55.049Z,101809.19
2019-02-16T15:48:26.333Z,101809.36
2019-02-16T15:50:56.641Z,101808.06
2019-02-16T15:53:26.917Z,101806.89
2019-02-16T15:55:57.196Z,101796.88
2019-02-16T15:58:27.603Z,101776.92
2019-02-16T16:00:57.970Z,101774.72
2019-02-16T16:03:28.287Z,101776.97
2019-02-16T16:05:59.738Z,101772.90
2019-02-16T16:08:35.547Z,101779.22
2019-02-16T16:11:07.479Z,101785.16
2019-02-16T16:13:52.833Z,101786.66
2019-02-16T16:16:34.893Z,101784.81
2019-02-16T16:19:13.903Z,101778.67
2019-02-16T16:21:58.616Z,101776.28
2019-02-16T16:24:46.796Z,101775.61
2019-02-16T16:27:26.746Z,101778.89
2019-02-16T16:30:03.646Z,101784.02
2019-02-16T16:32:37.625Z,101783.81
2019-02-16T16:35:12.813Z,101789.81
2019-02-16T16:37:44.735Z,101789.08
2019-02-16T16:40:35.266Z,101783.29
2019-02-16T16:43:13.085Z,101785.81
2019-02-16T16:45:45.046Z,101790.48
2019-02-16T16:48:16.972Z,101793.16
2019-02-16T16:50:54.786Z,101789.67
2019-02-16T16:53:32.728Z,101795.92
2019-02-16T16:56:08.710Z,101796.25
2019-02-16T16:58:40.746Z,101803.27
2019-02-16T17:01:12.707Z,101806.70
2019-02-16T17:03:54.126Z,101803.97
2019-02-16T17:06:28.170Z,101805.48
2019-02-16T17:09:01.283Z,101804.45
2019-02-16T17:11:52.904Z,101798.48
2019-02-16T17:14:33.884Z,101800.63
2019-02-16T17:17:18.315Z,101807.84
2019-02-16T17:20:07.190Z,101796.40
2019-02-16T17:22:51.232Z,101803.71
2019-02-16T17:25:26.487Z,101799.26
2019-02-16T17:27:58.435Z,101806.70
2019-02-16T17:30:36.048Z,101802.97
2019-02-16T17:33:10.678Z,101800.16
2019-02-16T17:35:42.664Z,101799.14
2019-02-16T17:38:26.119Z,101800.50
2019-02-16T17:41:04.946Z,101801.44
2019-02-16T17:43:37.244Z,101801.39
2019-02-16T17:46:18.141Z,101800.66
2019-02-16T17:48:54.164Z,101796.86
2019-02-16T17:51:42.606Z,101795.48
2019-02-16T17:54:17.410Z,101794.48
2019-02-16T17:57:05.438Z,101791.75
2019-02-16T17:59:40.091Z,101793.32
2019-02-16T18:02:29.512Z,101802.05
2019-02-16T18:05:10.621Z,101796.98
2019-02-16T18:07:45.439Z,101802.93
2019-02-16T18:10:26.336Z,101798.77
2019-02-16T18:12:58.321Z,101794.43
2019-02-16T18:15:30.281Z,101797.59
2019-02-16T18:18:02.217Z,101797.09
2019-02-16T18:20:35.754Z,101792.89
2019-02-16T18:23:07.678Z,101796.59
2019-02-16T18:25:39.752Z,101794.62
2019-02-16T18:28:13.773Z,101791.11
2019-02-16T18:30:56.170Z,101801.86
2019-02-16T18:33:33.854Z,101797.92
2019-02-16T18:36:15.426Z,101800.30
2019-02-16T18:38:48.717Z,101804.50
2019-02-16T18:41:26.323Z,101805.30
2019-02-16T18:44:04.273Z,101801.36
2019-02-16T18:46:36.180Z,101808.17
2019-02-16T18:49:10.962Z,101805.30
2019-02-16T18:51:42.862Z,101804.89
2019-02-16T18:54:14.868Z,101807.28
2019-02-16T18:57:06.956Z,101800.30
2019-02-16T18:59:47.383Z,101803.06
2019-02-16T19:02:19.297Z,101805.94
2019-02-16T19:05:09.229Z,101804.77
2019-02-16T19:07:44.915Z,101805.28
2019-02-16T19:10:19.537Z,101806.34
2019-02-16T19:13:07.455Z,101805.53
2019-02-16T19:15:48.408Z,101804.25
2019-02-16T19:18:23.092Z,101800.07
2019-02-16T19:21:06.961Z,101799.67
2019-02-16T19:23:52.873Z,101801.12
2019-02-16T19:26:33.700Z,101797.17
2019-02-16T19:29:05.604Z,101796.28
2019-02-16T19:31:44.674Z,101794.44
2019-02-16T19:34:34.580Z,101795.90
2019-02-16T19:37:18.219Z,101798.75
2019-02-16T19:39:50.158Z,101794.30
2019-02-16T19:42:22.406Z,101802.05
2019-02-16T19:44:56.388Z,101800.74
2019-02-16T19:47:38.415Z,101794.56
2019-02-16T19:50:13.590Z,101799.43
2019-02-16T19:52:57.508Z,101798.63
2019-02-16T19:55:44.388Z,101794.72
2019-02-16T19:58:21.321Z,101792.87
2019-02-16T20:00:53.243Z,101794.30
2019-02-16T20:03:25.427Z,101791.70
2019-02-16T20:06:13.911Z,101795.75
2019-02-16T20:08:54.955Z,101799.56
2019-02-16T20:11:45.386Z,101805.84
2019-02-16T20:14:26.375Z,101803.76
2019-02-16T20:17:02.458Z,101794.82
2019-02-16T20:19:40.841Z,101793.10
2019-02-16T20:22:13.891Z,101794.53
2019-02-16T20:24:51.479Z,101791.39
2019-02-16T20:27:42.354Z,101789.26
2019-02-16T20:30:23.955Z,101783.87
2019-02-16T20:33:00.503Z,101788.95
2019-02-16T20:35:48.702Z,101793.92
2019-02-16T20:38:35.236Z,101791.30
2019-02-16T20:41:25.271Z,101794.55
2019-02-16T20:43:59.881Z,101795.94
2019-02-16T20:46:34.617Z,101792.00
2019-02-16T20:49:27.214Z,101802.44
2019-02-16T20:52:18.342Z,101800.20
2019-02-16T20:54:53.443Z,101803.84
2019-02-16T20:57:47.381Z,101802.49
2019-02-16T21:00:24.839Z,101800.15
2019-02-16T21:03:03.870Z,101802.59
2019-02-16T21:05:57.035Z,101805.72
2019-02-16T21:08:40.461Z,101800.95
2019-02-16T21:11:29.111Z,101813.52
2019-02-16T21:14:05.480Z,101810.66
2019-02-16T21:16:51.297Z,101808.22
2019-02-16T21:19:32.436Z,101807.55
2019-02-16T21:22:23.532Z,101813.56
2019-02-16T21:24:58.083Z,101812.43
2019-02-16T21:27:32.179Z,101812.79
2019-02-16T21:30:19.245Z,101815.67
2019-02-16T21:32:56.734Z,101814.60
2019-02-16T21:35:38.709Z,101809.64
2019-02-16T21:38:16.339Z,101815.16
2019-02-16T21:41:02.937Z,101813.30
2019-02-16T21:43:40.595Z,101810.73
2019-02-16T21:46:27.848Z,101813.75
2019-02-16T21:49:06.135Z,101812.55
2019-02-16T21:51:41.388Z,101812.79
2019-02-16T21:54:30.168Z,101812.73
2019-02-16T21:57:02.302Z,101813.95
2019-02-16T21:59:43.496Z,101817.20
2019-02-16T22:02:32.778Z,101816.30
2019-02-16T22:05:21.100Z,101816.66
2019-02-16T22:08:09.105Z,101820.33
2019-02-16T22:10:54.610Z,101824.25
2019-02-16T22:13:28.319Z,101822.16
2019-02-16T22:15:58.594Z,101818.91
2019-02-16T22:18:28.847Z,101821.34
2019-02-16T22:20:59.122Z,101819.23
2019-02-16T22:23:30.547Z,101823.28
2019-02-16T22:26:00.826Z,101821.69
2019-02-16T22:28:31.363Z,101819.18
2019-02-16T22:31:01.750Z,101816.05
2019-02-16T22:33:32.032Z,101815.76
2019-02-16T22:36:02.316Z,101813.02
2019-02-16T22:38:32.579Z,101811.08
2019-02-16T22:41:04.539Z,101817.26
2019-02-16T22:43:36.421Z,101819.21
2019-02-16T22:46:08.468Z,101818.84
2019-02-16T22:48:39.751Z,101815.19
2019-02-16T22:51:10.015Z,101816.33
2019-02-16T22:53:40.340Z,101820.75
2019-02-16T22:56:10.628Z,101820.22
2019-02-16T22:58:40.904Z,101818.69
2019-02-16T23:01:11.256Z,101815.81
2019-02-16T23:03:43.132Z,101821.43
2019-02-16T23:06:14.975Z,101813.72
2019-02-16T23:08:45.252Z,101813.19
2019-02-16T23:11:15.551Z,101817.73
2019-02-16T23:13:45.824Z,101820.75
2019-02-16T23:16:16.261Z,101822.86
2019-02-16T23:18:46.537Z,101817.91
2019-02-16T23:21:16.824Z,101818.69
2019-02-16T23:23:47.097Z,101816.20
2019-02-16T23:26:17.374Z,101818.62
2019-02-16T23:28:47.643Z,101812.87
2019-02-16T23:31:17.998Z,101817.49
2019-02-16T23:33:49.910Z,101817.52
2019-02-16T23:36:20.188Z,101817.52
2019-02-16T23:38:50.439Z,101821.89
2019-02-16T23:41:20.730Z,101816.39
2019-02-16T23:43:50.992Z,101799.84
2019-02-16T23:46:21.265Z,101799.84
2019-02-16T23:48:51.523Z,101807.16
2019-02-16T23:51:21.803Z,101809.64
2019-02-16T23:53:52.043Z,101810.20
2019-02-16T23:56:22.334Z,101812.69
2019-02-16T23:58:52.760Z,101812.69
